EZY25AW EHAM-EDDF
Flight info
| Callsign | EZY25AW |
|---|---|
| Flight time | N/A |
| Altitude | 33000 |
| Route | EDUPO Z739 MISGO DCT DIXAT DIXAT1B |
| Aircraft | A20N/M-SDE2E3FGHIRWXY/LB1 |
Departure
| Time | 2026-04-17 12:18 |
|---|---|
| Airport | Amsterdam Airport Schiphol (EHAM) |
Arrival
| Time | N/A |
|---|---|
| Airport | Frankfurt Main Airport (EDDF) |
| Time | Latitude | Longitude | Altitude | Speed | Heading |
|---|---|---|---|---|---|
| 2026-04-17 11:57 | 52.31048 | 4.75513 | -4 ft | 0 kts | 150° |
| 2026-04-17 12:02 | 52.31048 | 4.75512 | -4 ft | 0 kts | 150° |
| 2026-04-17 12:04 | 52.31053 | 4.75508 | -4 ft | 1 kts | 150° |
| 2026-04-17 12:04 | 52.31061 | 4.75501 | -3 ft | 1 kts | 150° |
| 2026-04-17 12:04 | 52.31066 | 4.75496 | -3 ft | 0 kts | 149° |
| 2026-04-17 12:04 | 52.31074 | 4.75488 | -3 ft | 1 kts | 149° |
| 2026-04-17 12:05 | 52.31088 | 4.75475 | -3 ft | 3 kts | 141° |
| 2026-04-17 12:05 | 52.31099 | 4.75447 | -3 ft | 3 kts | 97° |
| 2026-04-17 12:05 | 52.31100 | 4.75434 | -3 ft | 0 kts | 98° |
| 2026-04-17 12:07 | 52.31098 | 4.75458 | -3 ft | 5 kts | 94° |
| 2026-04-17 12:08 | 52.31131 | 4.75496 | -3 ft | 8 kts | 2° |
| 2026-04-17 12:08 | 52.31196 | 4.75489 | -1 ft | 11 kts | 356° |
| 2026-04-17 12:08 | 52.31293 | 4.75482 | -2 ft | 17 kts | 357° |
| 2026-04-17 12:08 | 52.31406 | 4.75475 | -5 ft | 13 kts | 12° |
| 2026-04-17 12:09 | 52.31438 | 4.75617 | -4 ft | 16 kts | 86° |
| 2026-04-17 12:09 | 52.31443 | 4.75812 | -3 ft | 18 kts | 84° |
| 2026-04-17 12:09 | 52.31452 | 4.76034 | -1 ft | 21 kts | 87° |
| 2026-04-17 12:09 | 52.31461 | 4.76286 | -1 ft | 24 kts | 85° |
| 2026-04-17 12:10 | 52.31470 | 4.76571 | -2 ft | 27 kts | 88° |
| 2026-04-17 12:10 | 52.31483 | 4.76898 | -6 ft | 30 kts | 86° |
| 2026-04-17 12:10 | 52.31471 | 4.77181 | -7 ft | 24 kts | 121° |
| 2026-04-17 12:10 | 52.31387 | 4.77343 | -5 ft | 19 kts | 132° |
| 2026-04-17 12:11 | 52.31325 | 4.77451 | -5 ft | 4 kts | 136° |
| 2026-04-17 12:11 | 52.31302 | 4.77480 | -4 ft | 5 kts | 148° |
| 2026-04-17 12:11 | 52.31272 | 4.77500 | -3 ft | 5 kts | 164° |
| 2026-04-17 12:12 | 52.31179 | 4.77505 | -3 ft | 9 kts | 184° |
| 2026-04-17 12:12 | 52.31108 | 4.77495 | -4 ft | 12 kts | 185° |
| 2026-04-17 12:12 | 52.31011 | 4.77481 | -3 ft | 16 kts | 185° |
| 2026-04-17 12:12 | 52.30891 | 4.77474 | -1 ft | 19 kts | 184° |
| 2026-04-17 12:13 | 52.30738 | 4.77459 | -4 ft | 22 kts | 183° |
| 2026-04-17 12:13 | 52.30699 | 4.77455 | -3 ft | 3 kts | 183° |
| 2026-04-17 12:13 | 52.30696 | 4.77454 | -3 ft | 0 kts | 183° |
| 2026-04-17 12:14 | 52.30695 | 4.77454 | -3 ft | 1 kts | 183° |
| 2026-04-17 12:14 | 52.30673 | 4.77463 | -3 ft | 6 kts | 159° |
| 2026-04-17 12:14 | 52.30608 | 4.77511 | -3 ft | 14 kts | 152° |
| 2026-04-17 12:15 | 52.30520 | 4.77585 | -3 ft | 8 kts | 162° |
| 2026-04-17 12:15 | 52.30468 | 4.77587 | -3 ft | 8 kts | 183° |
| 2026-04-17 12:15 | 52.30406 | 4.77577 | -3 ft | 10 kts | 194° |
| 2026-04-17 12:15 | 52.30379 | 4.77541 | -4 ft | 0 kts | 233° |
| 2026-04-17 12:17 | 52.30324 | 4.77402 | -5 ft | 44 kts | 238° |
| 2026-04-17 12:17 | 52.30028 | 4.76628 | -4 ft | 112 kts | 239° |
| 2026-04-17 12:18 | 52.29515 | 4.75290 | 46 ft | 161 kts | 238° |
| 2026-04-17 12:18 | 52.28933 | 4.73687 | 712 ft | 168 kts | 237° |
| 2026-04-17 12:18 | 52.28292 | 4.72012 | 1522 ft | 180 kts | 236° |
| 2026-04-17 12:18 | 52.27601 | 4.70230 | 2288 ft | 189 kts | 236° |
| 2026-04-17 12:19 | 52.26846 | 4.68446 | 3008 ft | 193 kts | 223° |
| 2026-04-17 12:19 | 52.25626 | 4.67514 | 3605 ft | 206 kts | 186° |
| 2026-04-17 12:19 | 52.24175 | 4.67973 | 4287 ft | 223 kts | 152° |
| 2026-04-17 12:19 | 52.23023 | 4.69705 | 5230 ft | 230 kts | 129° |
| 2026-04-17 12:20 | 52.22175 | 4.71967 | 6170 ft | 235 kts | 120° |
| 2026-04-17 12:20 | 52.21449 | 4.74336 | 7072 ft | 239 kts | 118° |
| 2026-04-17 12:20 | 52.20708 | 4.76813 | 7891 ft | 245 kts | 119° |
| 2026-04-17 12:20 | 52.19887 | 4.79361 | 8482 ft | 264 kts | 122° |
| 2026-04-17 12:21 | 52.18934 | 4.82071 | 8974 ft | 284 kts | 123° |
| 2026-04-17 12:21 | 52.17948 | 4.84903 | 9811 ft | 292 kts | 117° |
| 2026-04-17 12:21 | 52.17502 | 4.88188 | 10551 ft | 308 kts | 92° |
| 2026-04-17 12:21 | 52.17839 | 4.91782 | 10885 ft | 335 kts | 76° |
| 2026-04-17 12:22 | 52.18557 | 4.95528 | 11215 ft | 356 kts | 72° |
| 2026-04-17 12:22 | 52.19377 | 4.99397 | 11769 ft | 369 kts | 72° |
| 2026-04-17 12:22 | 52.20224 | 5.03494 | 12013 ft | 391 kts | 73° |
| 2026-04-17 12:22 | 52.21079 | 5.07817 | 12237 ft | 410 kts | 73° |
| 2026-04-17 12:23 | 52.21948 | 5.12358 | 12453 ft | 428 kts | 73° |
| 2026-04-17 12:23 | 52.22814 | 5.17008 | 12889 ft | 437 kts | 76° |
| 2026-04-17 12:23 | 52.23280 | 5.21914 | 13533 ft | 439 kts | 90° |
| 2026-04-17 12:23 | 52.23027 | 5.26877 | 14143 ft | 440 kts | 104° |
| 2026-04-17 12:24 | 52.22067 | 5.31633 | 14692 ft | 441 kts | 117° |
| 2026-04-17 12:24 | 52.21102 | 5.34532 | 15066 ft | 440 kts | 124° |
| 2026-04-17 12:24 | 52.19350 | 5.38622 | 15798 ft | 438 kts | 130° |
| 2026-04-17 12:24 | 52.17450 | 5.42499 | 16572 ft | 436 kts | 132° |
| 2026-04-17 12:25 | 52.15513 | 5.46277 | 17370 ft | 434 kts | 133° |
| 2026-04-17 12:25 | 52.13571 | 5.50036 | 18186 ft | 433 kts | 133° |
| 2026-04-17 12:25 | 52.11638 | 5.53785 | 18947 ft | 432 kts | 133° |
| 2026-04-17 12:25 | 52.09714 | 5.57533 | 19681 ft | 430 kts | 133° |
| 2026-04-17 12:26 | 52.07799 | 5.61271 | 20434 ft | 428 kts | 133° |
| 2026-04-17 12:26 | 52.05903 | 5.64976 | 21199 ft | 426 kts | 133° |
| 2026-04-17 12:26 | 52.04010 | 5.68673 | 21992 ft | 423 kts | 133° |
| 2026-04-17 12:26 | 52.02132 | 5.72336 | 22802 ft | 420 kts | 133° |
| 2026-04-17 12:27 | 52.00269 | 5.75962 | 23637 ft | 417 kts | 133° |
| 2026-04-17 12:27 | 51.98422 | 5.79553 | 24367 ft | 413 kts | 133° |
| 2026-04-17 12:27 | 51.96591 | 5.83108 | 25093 ft | 408 kts | 133° |
| 2026-04-17 12:27 | 51.94783 | 5.86612 | 25837 ft | 402 kts | 133° |
| 2026-04-17 12:28 | 51.93000 | 5.90063 | 26589 ft | 395 kts | 133° |
| 2026-04-17 12:28 | 51.91251 | 5.93446 | 27379 ft | 387 kts | 133° |
| 2026-04-17 12:28 | 51.89531 | 5.96766 | 27973 ft | 386 kts | 133° |
| 2026-04-17 12:28 | 51.87810 | 6.00078 | 28176 ft | 395 kts | 133° |
| 2026-04-17 12:29 | 51.86012 | 6.03530 | 28209 ft | 407 kts | 133° |
| 2026-04-17 12:29 | 51.84154 | 6.07096 | 28215 ft | 421 kts | 133° |
| 2026-04-17 12:29 | 51.82239 | 6.10770 | 28211 ft | 434 kts | 133° |
| 2026-04-17 12:29 | 51.80261 | 6.14561 | 28213 ft | 447 kts | 133° |
| 2026-04-17 12:30 | 51.78231 | 6.18450 | 28210 ft | 459 kts | 132° |
| 2026-04-17 12:30 | 51.76143 | 6.22442 | 28208 ft | 471 kts | 132° |
| 2026-04-17 12:30 | 51.73997 | 6.26539 | 28213 ft | 482 kts | 132° |
| 2026-04-17 12:31 | 51.69576 | 6.34957 | 28208 ft | 501 kts | 132° |
| 2026-04-17 12:31 | 51.65006 | 6.43633 | 28222 ft | 510 kts | 132° |
| 2026-04-17 12:32 | 51.60403 | 6.52343 | 28207 ft | 510 kts | 132° |
| 2026-04-17 12:32 | 51.55795 | 6.61028 | 28216 ft | 510 kts | 132° |
| 2026-04-17 12:33 | 51.51210 | 6.69639 | 28215 ft | 510 kts | 132° |
| 2026-04-17 12:33 | 51.46580 | 6.78306 | 28212 ft | 510 kts | 132° |
| 2026-04-17 12:34 | 51.41945 | 6.86952 | 28210 ft | 510 kts | 132° |
| 2026-04-17 12:34 | 51.37311 | 6.95567 | 28210 ft | 511 kts | 132° |
| 2026-04-17 12:35 | 51.32672 | 7.04162 | 28207 ft | 510 kts | 132° |
| 2026-04-17 12:35 | 51.27885 | 7.12520 | 28215 ft | 508 kts | 141° |
| 2026-04-17 12:37 | 51.05316 | 7.39432 | 28213 ft | 507 kts | 145° |
| 2026-04-17 12:38 | 50.99664 | 7.46122 | 28155 ft | 505 kts | 145° |
| 2026-04-17 12:38 | 50.96854 | 7.49441 | 27691 ft | 500 kts | 145° |
| 2026-04-17 12:38 | 50.94075 | 7.52719 | 27045 ft | 495 kts | 145° |
| 2026-04-17 12:38 | 50.91324 | 7.55957 | 26383 ft | 490 kts | 145° |
| 2026-04-17 12:39 | 50.88600 | 7.59159 | 25708 ft | 484 kts | 145° |
| 2026-04-17 12:39 | 50.85914 | 7.62312 | 25029 ft | 478 kts | 145° |
| 2026-04-17 12:39 | 50.83256 | 7.65428 | 24358 ft | 473 kts | 145° |
| 2026-04-17 12:39 | 50.80657 | 7.68469 | 23701 ft | 467 kts | 145° |
| 2026-04-17 12:40 | 50.78024 | 7.71545 | 22932 ft | 462 kts | 145° |
| 2026-04-17 12:40 | 50.75457 | 7.74540 | 22195 ft | 457 kts | 145° |
| 2026-04-17 12:40 | 50.72910 | 7.77507 | 21484 ft | 452 kts | 145° |
| 2026-04-17 12:40 | 50.70428 | 7.80396 | 20793 ft | 447 kts | 145° |
| 2026-04-17 12:41 | 50.67940 | 7.83287 | 20115 ft | 442 kts | 145° |
| 2026-04-17 12:41 | 50.65474 | 7.86148 | 19439 ft | 438 kts | 145° |
| 2026-04-17 12:41 | 50.63029 | 7.88981 | 18767 ft | 433 kts | 145° |
| 2026-04-17 12:41 | 50.60618 | 7.91773 | 18288 ft | 424 kts | 145° |
| 2026-04-17 12:42 | 50.58298 | 7.94458 | 18233 ft | 404 kts | 145° |
| 2026-04-17 12:42 | 50.56077 | 7.97025 | 18234 ft | 393 kts | 146° |
| 2026-04-17 12:42 | 50.53846 | 7.99596 | 18231 ft | 399 kts | 146° |
| 2026-04-17 12:42 | 50.51633 | 8.02143 | 18228 ft | 387 kts | 146° |
| 2026-04-17 12:43 | 50.49535 | 8.04648 | 18224 ft | 384 kts | 139° |
| 2026-04-17 12:43 | 50.47877 | 8.07916 | 18223 ft | 381 kts | 119° |
| 2026-04-17 12:43 | 50.46821 | 8.11639 | 18224 ft | 364 kts | 113° |
| 2026-04-17 12:43 | 50.45875 | 8.15234 | 18125 ft | 351 kts | 113° |
| 2026-04-17 12:44 | 50.44956 | 8.18724 | 17887 ft | 343 kts | 113° |
| 2026-04-17 12:44 | 50.44044 | 8.22181 | 17461 ft | 340 kts | 113° |
| 2026-04-17 12:44 | 50.43148 | 8.25580 | 17043 ft | 338 kts | 113° |
| 2026-04-17 12:44 | 50.42247 | 8.28991 | 16635 ft | 336 kts | 113° |
| 2026-04-17 12:45 | 50.41353 | 8.32372 | 16225 ft | 334 kts | 113° |
| 2026-04-17 12:45 | 50.40463 | 8.35729 | 15824 ft | 332 kts | 113° |
| 2026-04-17 12:45 | 50.39580 | 8.39055 | 15430 ft | 330 kts | 113° |
| 2026-04-17 12:45 | 50.38697 | 8.42369 | 15038 ft | 328 kts | 113° |
| 2026-04-17 12:46 | 50.37818 | 8.45656 | 14652 ft | 326 kts | 113° |
| 2026-04-17 12:46 | 50.36955 | 8.48875 | 14274 ft | 324 kts | 113° |
| 2026-04-17 12:46 | 50.36080 | 8.52127 | 13889 ft | 322 kts | 113° |
| 2026-04-17 12:46 | 50.35209 | 8.55344 | 13459 ft | 320 kts | 113° |
| 2026-04-17 12:47 | 50.34342 | 8.58542 | 13039 ft | 318 kts | 113° |
| 2026-04-17 12:47 | 50.33472 | 8.61739 | 12536 ft | 319 kts | 113° |
| 2026-04-17 12:47 | 50.32760 | 8.65026 | 12020 ft | 321 kts | 98° |
| 2026-04-17 12:47 | 50.32575 | 8.68499 | 11530 ft | 321 kts | 94° |
| 2026-04-17 12:48 | 50.32438 | 8.71990 | 11037 ft | 321 kts | 94° |
| 2026-04-17 12:48 | 50.32301 | 8.75493 | 10546 ft | 322 kts | 94° |
| 2026-04-17 12:48 | 50.32168 | 8.78992 | 10066 ft | 322 kts | 94° |
| 2026-04-17 12:48 | 50.32037 | 8.82499 | 9536 ft | 322 kts | 94° |
| 2026-04-17 12:49 | 50.31912 | 8.85999 | 9018 ft | 322 kts | 94° |
| 2026-04-17 12:49 | 50.31790 | 8.89508 | 8498 ft | 322 kts | 94° |
| 2026-04-17 12:49 | 50.31675 | 8.93004 | 7984 ft | 322 kts | 94° |
| 2026-04-17 12:49 | 50.31567 | 8.96436 | 7478 ft | 316 kts | 94° |
| 2026-04-17 12:50 | 50.31463 | 8.99818 | 6988 ft | 307 kts | 94° |
| 2026-04-17 12:50 | 50.31239 | 9.03083 | 6488 ft | 298 kts | 107° |
| 2026-04-17 12:50 | 50.30290 | 9.05883 | 5999 ft | 288 kts | 133° |
| 2026-04-17 12:50 | 50.28721 | 9.07670 | 5612 ft | 275 kts | 159° |
| 2026-04-17 12:51 | 50.26941 | 9.08604 | 5241 ft | 266 kts | 163° |
| 2026-04-17 12:51 | 50.25206 | 9.09451 | 5037 ft | 253 kts | 163° |
| 2026-04-17 12:51 | 50.23590 | 9.10237 | 4982 ft | 233 kts | 166° |
| 2026-04-17 12:51 | 50.22023 | 9.10249 | 4986 ft | 230 kts | 198° |
| 2026-04-17 12:52 | 50.20610 | 9.09097 | 4975 ft | 223 kts | 213° |
| 2026-04-17 12:52 | 50.19363 | 9.07831 | 4979 ft | 207 kts | 213° |
| 2026-04-17 12:52 | 50.18145 | 9.06590 | 5001 ft | 214 kts | 213° |
| 2026-04-17 12:52 | 50.16915 | 9.05330 | 4979 ft | 206 kts | 213° |
| 2026-04-17 12:53 | 50.15737 | 9.04113 | 4996 ft | 205 kts | 215° |
| 2026-04-17 12:53 | 50.14730 | 9.02530 | 4991 ft | 207 kts | 235° |
| 2026-04-17 12:53 | 50.14051 | 9.00605 | 4973 ft | 203 kts | 246° |
| 2026-04-17 12:53 | 50.13524 | 8.98542 | 4991 ft | 210 kts | 249° |
| 2026-04-17 12:54 | 50.13017 | 8.96384 | 4982 ft | 210 kts | 249° |
| 2026-04-17 12:54 | 50.12507 | 8.94246 | 4986 ft | 210 kts | 249° |
| 2026-04-17 12:54 | 50.11993 | 8.92096 | 4846 ft | 212 kts | 249° |
| 2026-04-17 12:54 | 50.11488 | 8.89975 | 4554 ft | 210 kts | 249° |
| 2026-04-17 12:55 | 50.10985 | 8.87872 | 4258 ft | 203 kts | 249° |
| 2026-04-17 12:55 | 50.10512 | 8.85885 | 3992 ft | 187 kts | 249° |
| 2026-04-17 12:55 | 50.10066 | 8.84016 | 3763 ft | 185 kts | 249° |
| 2026-04-17 12:55 | 50.09613 | 8.82117 | 3518 ft | 186 kts | 249° |
| 2026-04-17 12:56 | 50.09159 | 8.80213 | 3276 ft | 187 kts | 249° |
| 2026-04-17 12:56 | 50.08709 | 8.78330 | 3028 ft | 185 kts | 249° |
| 2026-04-17 12:56 | 50.08259 | 8.76446 | 2777 ft | 184 kts | 249° |
| 2026-04-17 12:56 | 50.07821 | 8.74612 | 2523 ft | 182 kts | 249° |
| 2026-04-17 12:57 | 50.07379 | 8.72761 | 2292 ft | 182 kts | 249° |
| 2026-04-17 12:57 | 50.06953 | 8.70977 | 2043 ft | 164 kts | 249° |
| 2026-04-17 12:57 | 50.06580 | 8.69416 | 1817 ft | 145 kts | 249° |
| 2026-04-17 12:57 | 50.06247 | 8.68023 | 1632 ft | 133 kts | 249° |
| 2026-04-17 12:58 | 50.05918 | 8.66646 | 1449 ft | 137 kts | 249° |
| 2026-04-17 12:58 | 50.05584 | 8.65246 | 1316 ft | 141 kts | 250° |
| 2026-04-17 12:58 | 50.05231 | 8.63739 | 1197 ft | 159 kts | 249° |
| 2026-04-17 12:58 | 50.04833 | 8.62118 | 953 ft | 153 kts | 250° |
| 2026-04-17 12:59 | 50.04471 | 8.60612 | 670 ft | 145 kts | 250° |
| 2026-04-17 12:59 | 50.04138 | 8.59208 | 481 ft | 133 kts | 250° |
| 2026-04-17 12:59 | 50.03828 | 8.57916 | 367 ft | 113 kts | 249° |